Station: EBLB - 19/03/2019 03:55Z (il y a 16 minutes)
EBLB 190355Z AUTO VRB01KT 9999 NCD M06/M07 Q1025 BLU
Vent de direction variable: 1 kt
Visibilité > 10 km
Pas de nuages détectés
Température: -06ºC - Point de rosée: -07ºC - QNH: 1025 hPa
Code couleur militaire: BLU (conditions VMC)